Douglas, North Dakota
Current Conditions -  °F | °C
As of 6:54 AM on Wednesday 22 Oct 2014 (Local Time) from KMOT Reporting Station
Clear Clear  
Wind Chill: 53°   Ceiling: Unl
Heat Index: 53°   Visibility: 10mi
Dew Point: 44°   Wind: 12mph
Humidity: 71%   Direction: 240°WSW
Pressure: 29.69"   Gusts: 17mph
Location:  47.86°N, 101.5°W
Report Text: KMOT 221154Z 24010G15KT 10SM CLR 12/07 A2969 RMK AO2 SLP056 T01170067 10194 20117 53019
Loading
Personal Weather Stations






























Interactive Weather Map
Tropical Storm Tracking
New forecast layout! Learn more

10-Day Weather Forecast

Advertisements
Track Severe Weather on mobile